createdAt,value
2023-01-29T00:00:18.946Z,-4.44
2023-01-29T00:02:48.014Z,-4.35
2023-01-29T00:05:27.546Z,-4.48
2023-01-29T00:07:57.621Z,-4.56
2023-01-29T00:10:26.188Z,-4.55
2023-01-29T00:12:58.456Z,-4.49
2023-01-29T00:15:26.810Z,-4.50
2023-01-29T00:17:55.125Z,-4.55
2023-01-29T00:20:23.467Z,-4.49
2023-01-29T00:22:51.835Z,-4.46
2023-01-29T00:25:20.205Z,-4.54
2023-01-29T00:27:48.615Z,-4.53
2023-01-29T00:30:19.915Z,-4.53
2023-01-29T00:32:48.739Z,-4.63
2023-01-29T00:35:17.305Z,-4.65
2023-01-29T00:37:45.683Z,-4.63
2023-01-29T00:40:15.131Z,-4.66
2023-01-29T00:43:03.128Z,-4.65
2023-01-29T00:45:33.908Z,-4.60
2023-01-29T00:48:02.329Z,-4.62
2023-01-29T00:50:31.494Z,-4.70
2023-01-29T00:53:00.046Z,-4.64
2023-01-29T00:55:31.182Z,-4.69
2023-01-29T00:57:59.749Z,-4.58
2023-01-29T01:00:28.127Z,-4.50
2023-01-29T01:03:05.799Z,-4.51
2023-01-29T01:05:34.233Z,-4.61
2023-01-29T01:08:02.750Z,-4.68
2023-01-29T01:10:32.658Z,-4.67
2023-01-29T01:13:02.599Z,-4.72
2023-01-29T01:15:32.961Z,-4.75
2023-01-29T01:18:03.394Z,-4.71
2023-01-29T01:20:33.258Z,-4.63
2023-01-29T01:23:02.156Z,-4.74
2023-01-29T01:25:30.522Z,-4.66
2023-01-29T01:28:01.614Z,-4.58
2023-01-29T01:30:30.057Z,-4.65
2023-01-29T01:32:58.412Z,-4.75
2023-01-29T01:35:28.383Z,-4.76
2023-01-29T01:37:56.691Z,-4.76
2023-01-29T01:40:26.728Z,-4.65
2023-01-29T01:42:57.110Z,-4.65
2023-01-29T01:45:29.791Z,-4.60
2023-01-29T01:48:01.457Z,-4.68
2023-01-29T01:50:34.822Z,-4.87
2023-01-29T01:53:07.043Z,-4.81
2023-01-29T01:55:39.191Z,-4.91
2023-01-29T01:58:11.760Z,-4.76
2023-01-29T02:00:40.830Z,-4.80
2023-01-29T02:03:27.993Z,-4.74
2023-01-29T02:06:17.088Z,-4.79
2023-01-29T02:09:10.066Z,-4.77
2023-01-29T02:11:39.266Z,-4.69
2023-01-29T02:14:09.031Z,-4.84
2023-01-29T02:16:37.977Z,-4.73
2023-01-29T02:19:10.119Z,-4.77
2023-01-29T02:21:54.305Z,-4.64
2023-01-29T02:25:10.052Z,-4.78
2023-01-29T02:28:29.494Z,-4.71
2023-01-29T02:31:03.307Z,-4.77
2023-01-29T02:33:37.451Z,-4.72
2023-01-29T02:36:14.530Z,-4.69
2023-01-29T02:38:47.317Z,-4.62
2023-01-29T02:41:18.018Z,-4.43
2023-01-29T02:43:49.816Z,-4.56
2023-01-29T02:46:31.502Z,-4.56
2023-01-29T02:49:03.347Z,-4.56
2023-01-29T02:51:35.681Z,-4.53
2023-01-29T02:54:08.672Z,-4.47
2023-01-29T02:56:40.352Z,-4.44
2023-01-29T02:59:13.406Z,-4.53
2023-01-29T03:01:46.783Z,-4.53
2023-01-29T03:04:19.903Z,-4.34
2023-01-29T03:06:51.317Z,-4.36
2023-01-29T03:09:23.694Z,-4.40
2023-01-29T03:12:20.329Z,-4.40
2023-01-29T03:15:10.381Z,-4.32
2023-01-29T03:17:45.125Z,-4.23
2023-01-29T03:20:18.000Z,-4.27
2023-01-29T03:22:52.167Z,-4.20
2023-01-29T03:25:40.207Z,-4.22
2023-01-29T03:28:26.665Z,-4.15
2023-01-29T03:31:16.109Z,-4.24
2023-01-29T03:33:52.059Z,-4.13
2023-01-29T03:36:23.710Z,-4.04
2023-01-29T03:38:52.433Z,-4.24
2023-01-29T03:41:28.079Z,-4.10
2023-01-29T03:44:03.829Z,-3.97
2023-01-29T03:46:36.881Z,-4.04
2023-01-29T03:49:10.839Z,-4.01
2023-01-29T03:51:45.791Z,-3.99
2023-01-29T03:54:18.070Z,-4.01
2023-01-29T03:56:56.511Z,-4.10
2023-01-29T03:59:34.825Z,-4.19
2023-01-29T04:02:39.870Z,-4.04
2023-01-29T04:05:15.310Z,-3.99
2023-01-29T04:08:00.687Z,-3.82
2023-01-29T04:10:50.356Z,-3.91
2023-01-29T04:13:19.706Z,-3.86
2023-01-29T04:15:49.611Z,-3.84
2023-01-29T04:18:21.190Z,-3.83
2023-01-29T04:21:16.339Z,-3.91
2023-01-29T04:23:45.426Z,-3.94
2023-01-29T04:26:26.646Z,-3.95
2023-01-29T04:29:02.942Z,-3.95
2023-01-29T04:31:36.380Z,-3.99
2023-01-29T04:34:14.459Z,-4.08
2023-01-29T04:36:52.991Z,-3.93
2023-01-29T04:39:26.618Z,-3.89
2023-01-29T04:41:57.116Z,-3.91
2023-01-29T04:44:33.390Z,-3.97
2023-01-29T04:47:07.304Z,-4.03
2023-01-29T04:49:42.556Z,-4.03
2023-01-29T04:52:17.445Z,-3.89
2023-01-29T04:54:50.149Z,-3.98
2023-01-29T04:57:23.330Z,-4.00
2023-01-29T04:59:57.175Z,-3.92
2023-01-29T05:02:26.294Z,-4.01
2023-01-29T05:04:56.583Z,-4.13
2023-01-29T05:07:27.777Z,-4.04
2023-01-29T05:09:56.352Z,-4.01
2023-01-29T05:12:26.613Z,-4.06
2023-01-29T05:14:55.320Z,-4.08
2023-01-29T05:17:29.672Z,-4.03
2023-01-29T05:20:00.810Z,-4.09
2023-01-29T05:22:29.501Z,-4.10
2023-01-29T05:24:59.874Z,-4.11
2023-01-29T05:27:51.401Z,-4.11
2023-01-29T05:30:25.837Z,-4.07
2023-01-29T05:32:54.226Z,-4.20
2023-01-29T05:35:24.031Z,-4.10
2023-01-29T05:37:52.440Z,-4.11
2023-01-29T05:40:20.978Z,-4.09
2023-01-29T05:42:49.455Z,-4.10
2023-01-29T05:45:21.163Z,-4.20
2023-01-29T05:47:57.516Z,-4.19
2023-01-29T05:50:31.316Z,-4.24
2023-01-29T05:53:01.404Z,-4.15
2023-01-29T05:55:30.648Z,-4.15
2023-01-29T05:58:00.717Z,-4.16
2023-01-29T06:00:29.095Z,-4.14
2023-01-29T06:02:57.659Z,-4.18
2023-01-29T06:05:27.856Z,-4.22
2023-01-29T06:07:56.420Z,-4.24
2023-01-29T06:10:25.192Z,-4.18
2023-01-29T06:12:55.304Z,-4.21
2023-01-29T06:15:25.018Z,-4.13
2023-01-29T06:17:55.075Z,-4.16
2023-01-29T06:20:26.081Z,-4.08
2023-01-29T06:23:02.777Z,-4.08
2023-01-29T06:25:31.243Z,-4.04
2023-01-29T06:28:00.684Z,-3.93
2023-01-29T06:30:29.433Z,-3.90
2023-01-29T06:32:59.034Z,-4.00
2023-01-29T06:35:27.602Z,-4.09
2023-01-29T06:37:59.311Z,-3.88
2023-01-29T06:40:29.248Z,-3.93
2023-01-29T06:42:57.730Z,-3.80
2023-01-29T06:45:26.296Z,-3.64
2023-01-29T06:47:54.763Z,-3.85
2023-01-29T06:50:23.288Z,-3.82
2023-01-29T06:52:51.774Z,-3.71
2023-01-29T06:55:22.774Z,-3.48
2023-01-29T06:57:52.675Z,-3.64
2023-01-29T07:00:24.275Z,-3.53
2023-01-29T07:02:53.107Z,-3.45
2023-01-29T07:05:22.547Z,-3.41
2023-01-29T07:07:54.277Z,-3.30
2023-01-29T07:10:22.987Z,-3.31
2023-01-29T07:12:54.625Z,-3.37
2023-01-29T07:15:23.156Z,-3.17
2023-01-29T07:17:58.713Z,-3.30
2023-01-29T07:20:27.714Z,-3.30
2023-01-29T07:22:56.385Z,-3.26
2023-01-29T07:25:27.761Z,-3.25
2023-01-29T07:27:59.923Z,-3.25
2023-01-29T07:30:29.412Z,-3.11
2023-01-29T07:32:57.868Z,-2.99
2023-01-29T07:35:28.460Z,-2.91
2023-01-29T07:37:56.940Z,-3.01
2023-01-29T07:40:25.432Z,-2.89
2023-01-29T07:43:00.951Z,-2.88
2023-01-29T07:45:52.627Z,-2.92
2023-01-29T07:48:26.281Z,-2.87
2023-01-29T07:50:56.275Z,-2.91
2023-01-29T07:53:24.681Z,-2.86
2023-01-29T07:55:58.392Z,-2.88
2023-01-29T07:58:28.434Z,-2.86
2023-01-29T08:00:56.862Z,-2.90
2023-01-29T08:03:27.691Z,-2.88
2023-01-29T08:05:56.062Z,-2.98
2023-01-29T08:08:26.549Z,-2.92
2023-01-29T08:10:54.908Z,-2.81
2023-01-29T08:13:26.158Z,-2.62
2023-01-29T08:15:59.996Z,-2.82
2023-01-29T08:18:29.319Z,-2.68
2023-01-29T08:21:01.474Z,-2.58
2023-01-29T08:23:33.085Z,-2.55
2023-01-29T08:26:03.277Z,-2.50
2023-01-29T08:28:35.315Z,-2.63
2023-01-29T08:31:14.766Z,-2.57
2023-01-29T08:33:43.204Z,-2.64
2023-01-29T08:36:11.948Z,-2.50
2023-01-29T08:38:42.937Z,-2.42
2023-01-29T08:41:11.408Z,-2.53
2023-01-29T08:43:40.662Z,-2.36
2023-01-29T08:46:15.885Z,-2.33
2023-01-29T08:48:44.402Z,-2.16
2023-01-29T08:51:15.113Z,-2.15
2023-01-29T08:53:45.888Z,-2.33
2023-01-29T08:56:16.405Z,-2.36
2023-01-29T08:58:46.746Z,-2.24
2023-01-29T09:01:16.844Z,-2.25
2023-01-29T09:03:46.547Z,-2.27
2023-01-29T09:06:16.110Z,-2.22
2023-01-29T09:08:50.081Z,-2.38
2023-01-29T09:11:18.778Z,-2.41
2023-01-29T09:13:47.142Z,-2.38
2023-01-29T09:16:16.930Z,-2.41
2023-01-29T09:18:45.294Z,-2.46
2023-01-29T09:21:14.929Z,-2.40
2023-01-29T09:23:45.280Z,-2.37
2023-01-29T09:26:13.818Z,-2.28
2023-01-29T09:28:45.285Z,-2.18
2023-01-29T09:31:13.827Z,-2.28
2023-01-29T09:33:46.273Z,-2.05
2023-01-29T09:36:14.820Z,-2.05
2023-01-29T09:38:46.526Z,-2.18
2023-01-29T09:41:28.867Z,-2.06
2023-01-29T09:44:00.607Z,-2.27
2023-01-29T09:46:39.017Z,-2.31
2023-01-29T09:49:16.357Z,-2.32
2023-01-29T09:51:51.856Z,-2.35
2023-01-29T09:54:24.833Z,-2.40
2023-01-29T09:56:56.992Z,-2.27
2023-01-29T09:59:28.496Z,-2.26
2023-01-29T10:02:05.165Z,-2.36
2023-01-29T10:04:54.255Z,-2.43
2023-01-29T10:07:32.704Z,-2.36
2023-01-29T10:10:20.873Z,-2.52
2023-01-29T10:13:04.701Z,-2.41
2023-01-29T10:15:40.386Z,-2.41
2023-01-29T10:18:33.274Z,-2.33
2023-01-29T10:21:14.351Z,-2.13
2023-01-29T10:23:47.379Z,-2.13
2023-01-29T10:26:20.608Z,-2.08
2023-01-29T10:28:51.072Z,-2.17
2023-01-29T10:31:22.321Z,-2.20
2023-01-29T10:34:02.478Z,-1.90
2023-01-29T10:36:39.192Z,-1.87
2023-01-29T10:39:10.731Z,-1.58
2023-01-29T10:41:48.786Z,-1.64
2023-01-29T10:44:25.753Z,-1.68
2023-01-29T10:47:09.147Z,-1.71
2023-01-29T10:49:56.165Z,-1.83
2023-01-29T10:52:36.607Z,-1.87
2023-01-29T10:55:18.155Z,-1.98
2023-01-29T10:57:58.328Z,-1.74
2023-01-29T11:00:28.726Z,-1.72
2023-01-29T11:02:59.972Z,-1.92
2023-01-29T11:05:33.525Z,-1.92
2023-01-29T11:08:06.814Z,-2.05
2023-01-29T11:10:41.978Z,-1.92
2023-01-29T11:13:16.246Z,-1.97
2023-01-29T11:15:45.183Z,-1.95
2023-01-29T11:18:15.833Z,-1.97
2023-01-29T11:20:45.372Z,-1.74
2023-01-29T11:23:29.900Z,-1.63
2023-01-29T11:26:01.566Z,-1.67
2023-01-29T11:28:40.751Z,-1.77
2023-01-29T11:31:26.233Z,-1.88
2023-01-29T11:34:02.159Z,-1.74
2023-01-29T11:36:40.378Z,-2.08
2023-01-29T11:39:21.836Z,-2.07
2023-01-29T11:41:55.329Z,-2.09
2023-01-29T11:44:30.984Z,-2.04
2023-01-29T11:47:10.291Z,-2.07
2023-01-29T11:49:39.852Z,-1.99
2023-01-29T11:52:10.781Z,-1.98
2023-01-29T11:54:45.488Z,-2.00
2023-01-29T11:57:35.457Z,-2.04
2023-01-29T12:00:07.568Z,-1.98
2023-01-29T12:02:40.187Z,-2.15
2023-01-29T12:05:16.615Z,-2.27
2023-01-29T12:07:46.893Z,-2.20
2023-01-29T12:10:35.617Z,-2.28
2023-01-29T12:13:26.451Z,-2.33
2023-01-29T12:16:12.218Z,-2.44
2023-01-29T12:18:45.138Z,-2.44
2023-01-29T12:21:19.066Z,-2.40
2023-01-29T12:23:53.896Z,-2.45
2023-01-29T12:26:27.223Z,-2.59
2023-01-29T12:29:07.281Z,-2.57
2023-01-29T12:31:44.555Z,-2.62
2023-01-29T12:34:17.811Z,-2.58
2023-01-29T12:36:53.310Z,-2.62
2023-01-29T12:39:24.149Z,-2.46
2023-01-29T12:41:59.477Z,-2.58
2023-01-29T12:44:34.709Z,-2.74
2023-01-29T12:47:07.012Z,-2.77
2023-01-29T12:49:39.030Z,-2.78
2023-01-29T12:52:13.546Z,-2.80
2023-01-29T12:54:49.204Z,-2.72
2023-01-29T12:57:23.519Z,-2.67
2023-01-29T12:59:54.957Z,-2.72
2023-01-29T13:02:33.791Z,-2.65
2023-01-29T13:05:07.305Z,-2.73
2023-01-29T13:07:40.223Z,-2.69
2023-01-29T13:10:13.742Z,-2.70
2023-01-29T13:12:57.321Z,-2.75
2023-01-29T13:15:32.715Z,-2.65
2023-01-29T13:18:21.972Z,-2.70
2023-01-29T13:20:51.120Z,-2.82
2023-01-29T13:23:23.001Z,-2.79
2023-01-29T13:25:52.892Z,-2.81
2023-01-29T13:28:24.926Z,-2.83
2023-01-29T13:31:28.856Z,-2.78
2023-01-29T13:34:04.886Z,-2.83
2023-01-29T13:36:33.784Z,-2.87
2023-01-29T13:39:04.919Z,-2.81
2023-01-29T13:41:35.229Z,-2.82
2023-01-29T13:44:07.527Z,-2.74
2023-01-29T13:46:36.073Z,-2.88
2023-01-29T13:49:05.741Z,-3.00
2023-01-29T13:51:37.149Z,-2.96
2023-01-29T13:54:07.755Z,-2.97
2023-01-29T13:56:51.700Z,-2.94
2023-01-29T13:59:25.952Z,-3.00
2023-01-29T14:02:05.541Z,-2.91
2023-01-29T14:04:34.318Z,-2.80
2023-01-29T14:07:05.500Z,-2.83
2023-01-29T14:10:03.762Z,-2.83
2023-01-29T14:12:55.742Z,-2.80
2023-01-29T14:15:34.196Z,-2.84
2023-01-29T14:18:18.576Z,-2.82
2023-01-29T14:20:57.850Z,-2.79
2023-01-29T14:23:40.596Z,-2.70
2023-01-29T14:26:23.318Z,-2.84
2023-01-29T14:28:59.244Z,-2.87
2023-01-29T14:31:46.521Z,-2.93
2023-01-29T14:34:28.027Z,-2.88
2023-01-29T14:36:58.356Z,-3.00
2023-01-29T14:39:34.498Z,-2.97
2023-01-29T14:42:05.506Z,-2.94
2023-01-29T14:45:08.361Z,-2.94
2023-01-29T14:47:56.585Z,-2.88
2023-01-29T14:50:52.470Z,-2.85
2023-01-29T14:53:31.519Z,-2.88
2023-01-29T14:56:03.479Z,-2.85
2023-01-29T14:58:39.855Z,-2.80
2023-01-29T15:01:18.246Z,-2.73
2023-01-29T15:03:50.349Z,-2.76
2023-01-29T15:06:22.943Z,-2.69
2023-01-29T15:08:56.618Z,-2.86
2023-01-29T15:11:37.783Z,-2.83
2023-01-29T15:14:19.006Z,-2.88
2023-01-29T15:16:52.435Z,-2.97
2023-01-29T15:19:27.238Z,-2.90
2023-01-29T15:22:06.758Z,-2.95
2023-01-29T15:24:35.259Z,-2.94
2023-01-29T15:27:03.841Z,-3.01
2023-01-29T15:29:32.407Z,-2.99
2023-01-29T15:32:00.846Z,-3.05
2023-01-29T15:34:30.846Z,-3.11
2023-01-29T15:36:59.216Z,-3.10
2023-01-29T15:39:28.565Z,-3.17
2023-01-29T15:42:13.772Z,-3.24
2023-01-29T15:44:47.207Z,-3.21
2023-01-29T15:47:16.277Z,-3.21
2023-01-29T15:49:49.323Z,-2.99
2023-01-29T15:52:19.968Z,-3.00
2023-01-29T15:54:48.685Z,-2.93
2023-01-29T15:57:22.102Z,-2.87
2023-01-29T15:59:52.176Z,-2.79
2023-01-29T16:02:38.133Z,-3.03
2023-01-29T16:05:12.022Z,-3.12
2023-01-29T16:07:40.900Z,-3.04
2023-01-29T16:10:16.646Z,-3.00
2023-01-29T16:12:47.433Z,-2.92
2023-01-29T16:15:28.382Z,-2.95
2023-01-29T16:17:57.415Z,-3.05
2023-01-29T16:20:39.896Z,-3.13
2023-01-29T16:23:08.805Z,-3.19
2023-01-29T16:25:39.888Z,-3.19
2023-01-29T16:28:11.071Z,-3.16
2023-01-29T16:30:40.356Z,-3.17
2023-01-29T16:33:14.122Z,-3.23
2023-01-29T16:35:44.330Z,-3.14
2023-01-29T16:38:28.714Z,-2.90
2023-01-29T16:41:08.964Z,-3.01
2023-01-29T16:43:58.423Z,-3.09
2023-01-29T16:46:33.491Z,-3.11
2023-01-29T16:49:02.428Z,-3.09
2023-01-29T16:51:37.817Z,-3.12
2023-01-29T16:54:09.554Z,-3.16
2023-01-29T16:56:40.756Z,-3.16
2023-01-29T16:59:17.906Z,-3.11
2023-01-29T17:01:46.463Z,-3.11
2023-01-29T17:04:15.905Z,-3.06
2023-01-29T17:06:47.314Z,-3.11
2023-01-29T17:09:22.725Z,-3.04
2023-01-29T17:11:56.113Z,-3.10
2023-01-29T17:14:26.135Z,-3.11
2023-01-29T17:16:56.432Z,-3.08
2023-01-29T17:19:26.039Z,-2.98
2023-01-29T17:21:56.863Z,-3.11
2023-01-29T17:24:28.485Z,-3.24
2023-01-29T17:26:57.600Z,-3.12
2023-01-29T17:29:28.150Z,-3.01
2023-01-29T17:31:56.795Z,-3.10
2023-01-29T17:34:25.561Z,-3.22
2023-01-29T17:36:57.336Z,-3.25
2023-01-29T17:39:26.254Z,-3.26
2023-01-29T17:41:58.221Z,-3.26
2023-01-29T17:44:27.282Z,-3.26
2023-01-29T17:46:55.731Z,-3.34
2023-01-29T17:49:26.199Z,-3.34
2023-01-29T17:51:57.149Z,-3.30
2023-01-29T17:54:26.785Z,-3.35
2023-01-29T17:56:55.582Z,-3.36
2023-01-29T17:59:25.882Z,-3.32
2023-01-29T18:01:54.722Z,-3.28
2023-01-29T18:04:23.427Z,-3.31
2023-01-29T18:06:52.558Z,-3.28
2023-01-29T18:09:23.073Z,-3.30
2023-01-29T18:11:53.727Z,-3.38
2023-01-29T18:14:22.064Z,-3.47
2023-01-29T18:16:53.040Z,-3.41
2023-01-29T18:19:28.029Z,-3.33
2023-01-29T18:21:56.512Z,-3.35
2023-01-29T18:24:27.369Z,-3.41
2023-01-29T18:26:55.871Z,-3.36
2023-01-29T18:29:30.618Z,-3.36
2023-01-29T18:31:58.798Z,-3.42
2023-01-29T18:34:27.240Z,-3.31
2023-01-29T18:36:59.249Z,-3.35
2023-01-29T18:39:29.100Z,-3.33
2023-01-29T18:41:57.511Z,-3.36
2023-01-29T18:44:25.899Z,-3.33
2023-01-29T18:46:54.434Z,-3.27
2023-01-29T18:49:22.870Z,-3.29
2023-01-29T18:51:52.668Z,-3.33
2023-01-29T18:54:21.670Z,-3.43
2023-01-29T18:57:11.114Z,-3.29
2023-01-29T18:59:39.938Z,-3.32
2023-01-29T19:02:11.294Z,-3.27
2023-01-29T19:04:39.968Z,-3.35
2023-01-29T19:07:09.940Z,-3.19
2023-01-29T19:09:38.609Z,-3.28
2023-01-29T19:12:08.930Z,-3.30
2023-01-29T19:14:37.301Z,-3.37
2023-01-29T19:17:05.790Z,-3.42
2023-01-29T19:19:34.269Z,-3.49
2023-01-29T19:22:04.364Z,-3.42
2023-01-29T19:24:38.801Z,-3.41
2023-01-29T19:27:08.596Z,-3.35
2023-01-29T19:29:37.052Z,-3.30
2023-01-29T19:32:05.617Z,-3.30
2023-01-29T19:34:34.426Z,-3.33
2023-01-29T19:37:02.808Z,-3.35
2023-01-29T19:39:33.881Z,-3.41
2023-01-29T19:42:02.476Z,-3.44
2023-01-29T19:44:32.255Z,-3.35
2023-01-29T19:47:03.868Z,-3.36
2023-01-29T19:49:34.128Z,-3.49
2023-01-29T19:52:02.526Z,-3.38
2023-01-29T19:54:31.016Z,-3.45
2023-01-29T19:56:59.771Z,-3.38
2023-01-29T19:59:28.186Z,-3.32
2023-01-29T20:01:58.029Z,-3.29
2023-01-29T20:04:26.857Z,-3.31
2023-01-29T20:06:55.526Z,-3.38
2023-01-29T20:09:24.094Z,-3.38
2023-01-29T20:11:52.535Z,-3.27
2023-01-29T20:14:21.232Z,-3.28
2023-01-29T20:16:49.716Z,-3.29
2023-01-29T20:19:26.320Z,-3.12
2023-01-29T20:21:54.805Z,-3.14
2023-01-29T20:24:23.609Z,-3.23
2023-01-29T20:26:52.190Z,-3.16
2023-01-29T20:29:21.059Z,-3.28
2023-01-29T20:31:55.087Z,-3.35
2023-01-29T20:34:25.128Z,-3.28
2023-01-29T20:36:53.560Z,-3.20
2023-01-29T20:39:21.941Z,-3.32
2023-01-29T20:41:52.862Z,-3.36
2023-01-29T20:44:21.229Z,-3.38
2023-01-29T20:46:49.699Z,-3.28
2023-01-29T20:49:18.466Z,-3.36
2023-01-29T20:51:50.184Z,-3.32
2023-01-29T20:54:18.537Z,-3.31
2023-01-29T20:56:47.615Z,-3.12
2023-01-29T20:59:16.414Z,-3.23
2023-01-29T21:01:45.547Z,-3.20
2023-01-29T21:04:18.997Z,-3.07
2023-01-29T21:06:48.943Z,-3.19
2023-01-29T21:09:17.374Z,-3.15
2023-01-29T21:11:46.161Z,-3.16
2023-01-29T21:14:14.592Z,-3.16
2023-01-29T21:16:43.029Z,-3.16
2023-01-29T21:19:17.324Z,-3.15
2023-01-29T21:21:45.694Z,-3.12
2023-01-29T21:24:18.748Z,-3.02
2023-01-29T21:26:49.126Z,-3.15
2023-01-29T21:29:17.987Z,-3.31
2023-01-29T21:31:46.614Z,-3.34
2023-01-29T21:34:15.071Z,-3.31
2023-01-29T21:36:43.490Z,-3.33
2023-01-29T21:39:17.735Z,-3.28
2023-01-29T21:42:07.196Z,-3.31
2023-01-29T21:44:36.186Z,-3.20
2023-01-29T21:47:12.415Z,-3.30
2023-01-29T21:49:42.154Z,-3.32
2023-01-29T21:52:11.550Z,-3.34
2023-01-29T21:54:40.941Z,-3.29
2023-01-29T21:57:15.029Z,-3.23
2023-01-29T21:59:43.453Z,-3.33
2023-01-29T22:02:16.197Z,-3.33
2023-01-29T22:04:44.634Z,-3.40
2023-01-29T22:07:13.943Z,-3.41
2023-01-29T22:09:42.494Z,-3.59
2023-01-29T22:12:12.987Z,-3.54
2023-01-29T22:14:42.286Z,-3.44
2023-01-29T22:17:11.038Z,-3.42
2023-01-29T22:19:39.568Z,-3.39
2023-01-29T22:22:10.204Z,-3.37
2023-01-29T22:24:38.791Z,-3.35
2023-01-29T22:27:07.377Z,-3.42
2023-01-29T22:29:37.188Z,-3.31
2023-01-29T22:32:06.096Z,-3.38
2023-01-29T22:34:36.897Z,-3.34
2023-01-29T22:37:05.275Z,-3.34
2023-01-29T22:39:33.802Z,-3.33
2023-01-29T22:42:02.248Z,-3.01
2023-01-29T22:44:30.652Z,-3.16
2023-01-29T22:47:01.055Z,-3.13
2023-01-29T22:49:30.889Z,-3.24
2023-01-29T22:52:11.154Z,-3.31
2023-01-29T22:54:43.258Z,-3.21
2023-01-29T22:57:12.070Z,-3.23
2023-01-29T22:59:40.522Z,-3.21
2023-01-29T23:02:10.903Z,-3.31
2023-01-29T23:04:39.258Z,-3.26
2023-01-29T23:07:07.622Z,-3.21
2023-01-29T23:09:38.474Z,-3.25
2023-01-29T23:12:09.759Z,-3.31
2023-01-29T23:14:38.235Z,-3.31
2023-01-29T23:17:06.658Z,-3.25
2023-01-29T23:19:36.501Z,-3.24
2023-01-29T23:22:05.085Z,-3.16
2023-01-29T23:24:33.499Z,-3.26
2023-01-29T23:27:15.655Z,-3.18
2023-01-29T23:29:44.625Z,-3.33
2023-01-29T23:32:20.150Z,-3.28
2023-01-29T23:34:49.942Z,-3.20
2023-01-29T23:37:20.434Z,-3.28
2023-01-29T23:39:49.571Z,-3.20
2023-01-29T23:42:17.943Z,-3.25
2023-01-29T23:44:46.263Z,-3.23
2023-01-29T23:47:14.695Z,-3.17
2023-01-29T23:49:43.494Z,-3.21
2023-01-29T23:52:13.249Z,-3.13
2023-01-29T23:54:41.652Z,-3.23
2023-01-29T23:57:11.884Z,-3.10
2023-01-29T23:59:40.251Z,-3.14
